sensor_id;sensor_type;location;lat;lon;timestamp;pressure;altitude;pressure_sealevel;temperature;humidity
59787;BME280;45672;51.612;5.536;2023-04-20T00:01:29;102088.63;;;7.47;39.17
59787;BME280;45672;51.612;5.536;2023-04-20T00:03:54;102077.44;;;7.56;38.74
59787;BME280;45672;51.612;5.536;2023-04-20T00:06:20;102074.56;;;7.47;38.87
59787;BME280;45672;51.612;5.536;2023-04-20T00:08:46;102074.66;;;7.45;38.85
59787;BME280;45672;51.612;5.536;2023-04-20T00:11:11;102061.31;;;7.47;38.28
59787;BME280;45672;51.612;5.536;2023-04-20T00:13:36;102063.22;;;7.45;39.25
59787;BME280;45672;51.612;5.536;2023-04-20T00:16:02;102075.72;;;7.42;38.66
59787;BME280;45672;51.612;5.536;2023-04-20T00:18:27;102052.41;;;7.35;39.63
59787;BME280;45672;51.612;5.536;2023-04-20T00:20:52;102053.25;;;7.35;39.34
59787;BME280;45672;51.612;5.536;2023-04-20T00:23:17;102048.69;;;7.37;39.07
59787;BME280;45672;51.612;5.536;2023-04-20T00:25:43;102047.97;;;7.35;40.29
59787;BME280;45672;51.612;5.536;2023-04-20T00:28:08;102042.78;;;7.34;38.87
59787;BME280;45672;51.612;5.536;2023-04-20T00:30:33;102031.41;;;7.32;39.08
59787;BME280;45672;51.612;5.536;2023-04-20T00:32:59;102036.94;;;7.29;39.22
59787;BME280;45672;51.612;5.536;2023-04-20T00:35:24;102032.69;;;7.26;39.29
59787;BME280;45672;51.612;5.536;2023-04-20T00:37:50;102026.13;;;7.19;39.66
59787;BME280;45672;51.612;5.536;2023-04-20T00:40:15;102033.53;;;7.14;39.71
59787;BME280;45672;51.612;5.536;2023-04-20T00:42:40;102024.00;;;7.11;40.05
59787;BME280;45672;51.612;5.536;2023-04-20T00:45:06;102017.75;;;7.12;40.56
59787;BME280;45672;51.612;5.536;2023-04-20T00:47:32;102016.16;;;7.10;40.71
59787;BME280;45672;51.612;5.536;2023-04-20T00:49:57;102026.66;;;7.11;40.64
59787;BME280;45672;51.612;5.536;2023-04-20T00:52:23;102011.09;;;7.06;40.85
59787;BME280;45672;51.612;5.536;2023-04-20T00:54:48;102016.66;;;7.02;41.19
59787;BME280;45672;51.612;5.536;2023-04-20T00:57:14;102004.50;;;6.99;42.12
59787;BME280;45672;51.612;5.536;2023-04-20T00:59:40;102001.75;;;7.01;42.51
59787;BME280;45672;51.612;5.536;2023-04-20T01:02:06;101999.00;;;7.02;41.37
59787;BME280;45672;51.612;5.536;2023-04-20T01:04:33;101985.53;;;6.93;42.51
59787;BME280;45672;51.612;5.536;2023-04-20T01:07:00;101980.56;;;6.88;42.60
59787;BME280;45672;51.612;5.536;2023-04-20T01:09:25;101973.38;;;6.90;42.85
59787;BME280;45672;51.612;5.536;2023-04-20T01:11:50;101964.03;;;6.84;43.52
59787;BME280;45672;51.612;5.536;2023-04-20T01:14:16;101965.75;;;6.85;43.94
59787;BME280;45672;51.612;5.536;2023-04-20T01:16:41;101959.59;;;6.85;43.51
59787;BME280;45672;51.612;5.536;2023-04-20T01:19:09;101946.78;;;6.79;43.83
59787;BME280;45672;51.612;5.536;2023-04-20T01:21:34;101949.84;;;6.72;43.84
59787;BME280;45672;51.612;5.536;2023-04-20T01:24:00;101948.69;;;6.77;43.25
59787;BME280;45672;51.612;5.536;2023-04-20T01:26:25;101942.06;;;6.56;44.23
59787;BME280;45672;51.612;5.536;2023-04-20T01:28:51;101941.53;;;6.51;43.75
59787;BME280;45672;51.612;5.536;2023-04-20T01:31:16;101930.50;;;6.45;44.37
59787;BME280;45672;51.612;5.536;2023-04-20T01:33:42;101932.31;;;6.44;44.85
59787;BME280;45672;51.612;5.536;2023-04-20T01:36:08;101933.91;;;6.47;44.38
59787;BME280;45672;51.612;5.536;2023-04-20T01:38:34;101937.50;;;6.46;44.70
59787;BME280;45672;51.612;5.536;2023-04-20T01:41:01;101925.22;;;6.45;45.53
59787;BME280;45672;51.612;5.536;2023-04-20T01:43:26;101931.34;;;6.45;45.43
59787;BME280;45672;51.612;5.536;2023-04-20T01:45:52;101915.59;;;6.44;45.76
59787;BME280;45672;51.612;5.536;2023-04-20T01:48:17;101912.78;;;6.47;46.00
59787;BME280;45672;51.612;5.536;2023-04-20T01:50:42;101903.44;;;6.41;45.03
59787;BME280;45672;51.612;5.536;2023-04-20T01:53:08;101904.88;;;6.32;46.21
59787;BME280;45672;51.612;5.536;2023-04-20T01:55:33;101904.03;;;6.32;46.54
59787;BME280;45672;51.612;5.536;2023-04-20T01:57:59;101898.97;;;6.29;46.34
59787;BME280;45672;51.612;5.536;2023-04-20T02:00:24;101897.47;;;6.25;46.22
59787;BME280;45672;51.612;5.536;2023-04-20T02:02:50;101892.69;;;6.17;46.97
59787;BME280;45672;51.612;5.536;2023-04-20T02:05:15;101892.59;;;6.18;47.79
59787;BME280;45672;51.612;5.536;2023-04-20T02:07:40;101893.22;;;6.22;47.46
59787;BME280;45672;51.612;5.536;2023-04-20T02:10:06;101890.47;;;6.24;46.87
59787;BME280;45672;51.612;5.536;2023-04-20T02:12:32;101891.03;;;6.29;46.61
59787;BME280;45672;51.612;5.536;2023-04-20T02:14:57;101889.53;;;6.25;47.87
59787;BME280;45672;51.612;5.536;2023-04-20T02:17:22;101887.94;;;6.22;47.56
59787;BME280;45672;51.612;5.536;2023-04-20T02:19:48;101879.06;;;6.23;46.81
59787;BME280;45672;51.612;5.536;2023-04-20T02:22:13;101874.00;;;6.20;47.10
59787;BME280;45672;51.612;5.536;2023-04-20T02:24:39;101889.66;;;6.23;47.44
59787;BME280;45672;51.612;5.536;2023-04-20T02:27:05;101870.38;;;6.21;47.66
59787;BME280;45672;51.612;5.536;2023-04-20T02:29:30;101882.84;;;6.19;47.80
59787;BME280;45672;51.612;5.536;2023-04-20T02:31:56;101873.22;;;6.18;48.60
59787;BME280;45672;51.612;5.536;2023-04-20T02:34:21;101877.78;;;6.16;47.86
59787;BME280;45672;51.612;5.536;2023-04-20T02:36:46;101871.00;;;6.12;48.71
59787;BME280;45672;51.612;5.536;2023-04-20T02:39:13;101872.34;;;6.04;48.88
59787;BME280;45672;51.612;5.536;2023-04-20T02:41:38;101865.56;;;6.00;50.47
59787;BME280;45672;51.612;5.536;2023-04-20T02:44:04;101854.16;;;6.00;49.88
59787;BME280;45672;51.612;5.536;2023-04-20T02:46:29;101855.38;;;5.94;50.41
59787;BME280;45672;51.612;5.536;2023-04-20T02:48:54;101850.28;;;5.91;50.41
59787;BME280;45672;51.612;5.536;2023-04-20T02:51:20;101850.28;;;5.91;51.17
59787;BME280;45672;51.612;5.536;2023-04-20T02:53:45;101848.28;;;5.95;51.31
59787;BME280;45672;51.612;5.536;2023-04-20T02:56:11;101849.63;;;5.87;51.76
59787;BME280;45672;51.612;5.536;2023-04-20T02:58:36;101841.91;;;5.84;52.04
59787;BME280;45672;51.612;5.536;2023-04-20T03:01:02;101843.53;;;5.87;52.11
59787;BME280;45672;51.612;5.536;2023-04-20T03:03:28;101844.47;;;5.86;52.83
59787;BME280;45672;51.612;5.536;2023-04-20T03:05:54;101837.69;;;5.82;53.38
59787;BME280;45672;51.612;5.536;2023-04-20T03:08:20;101827.13;;;5.82;53.61
59787;BME280;45672;51.612;5.536;2023-04-20T03:10:45;101839.19;;;5.86;54.20
59787;BME280;45672;51.612;5.536;2023-04-20T03:13:10;101826.31;;;5.94;54.20
59787;BME280;45672;51.612;5.536;2023-04-20T03:15:36;101827.88;;;5.97;54.33
59787;BME280;45672;51.612;5.536;2023-04-20T03:18:01;101819.63;;;6.03;54.99
59787;BME280;45672;51.612;5.536;2023-04-20T03:20:28;101819.09;;;6.11;55.11
59787;BME280;45672;51.612;5.536;2023-04-20T03:22:53;101819.44;;;6.19;54.22
59787;BME280;45672;51.612;5.536;2023-04-20T03:25:18;101813.41;;;6.17;55.35
59787;BME280;45672;51.612;5.536;2023-04-20T03:27:46;101820.72;;;6.26;54.70
59787;BME280;45672;51.612;5.536;2023-04-20T03:30:12;101818.63;;;6.31;56.19
59787;BME280;45672;51.612;5.536;2023-04-20T03:32:39;101815.56;;;6.37;55.41
59787;BME280;45672;51.612;5.536;2023-04-20T03:35:05;101815.34;;;6.41;56.06
59787;BME280;45672;51.612;5.536;2023-04-20T03:37:30;101805.09;;;6.49;56.52
59787;BME280;45672;51.612;5.536;2023-04-20T03:39:55;101799.28;;;6.56;55.87
59787;BME280;45672;51.612;5.536;2023-04-20T03:42:21;101800.66;;;6.62;56.51
59787;BME280;45672;51.612;5.536;2023-04-20T03:44:46;101785.31;;;6.67;55.75
59787;BME280;45672;51.612;5.536;2023-04-20T03:47:11;101799.09;;;6.72;55.36
59787;BME280;45672;51.612;5.536;2023-04-20T03:49:36;101800.97;;;6.70;55.84
59787;BME280;45672;51.612;5.536;2023-04-20T03:52:02;101788.06;;;6.66;56.88
59787;BME280;45672;51.612;5.536;2023-04-20T03:54:28;101788.06;;;6.79;55.63
59787;BME280;45672;51.612;5.536;2023-04-20T03:56:53;101790.19;;;6.73;56.40
59787;BME280;45672;51.612;5.536;2023-04-20T03:59:18;101790.94;;;6.76;56.60
59787;BME280;45672;51.612;5.536;2023-04-20T04:01:44;101788.19;;;6.77;56.84
59787;BME280;45672;51.612;5.536;2023-04-20T04:04:09;101780.97;;;6.79;56.64
59787;BME280;45672;51.612;5.536;2023-04-20T04:06:35;101776.31;;;6.83;56.81
59787;BME280;45672;51.612;5.536;2023-04-20T04:09:00;101779.31;;;6.78;57.22
59787;BME280;45672;51.612;5.536;2023-04-20T04:11:25;101787.53;;;6.86;57.40
59787;BME280;45672;51.612;5.536;2023-04-20T04:13:54;101776.31;;;6.96;57.28
59787;BME280;45672;51.612;5.536;2023-04-20T04:16:19;101774.94;;;6.90;58.08
59787;BME280;45672;51.612;5.536;2023-04-20T04:18:46;101770.91;;;6.97;58.52
59787;BME280;45672;51.612;5.536;2023-04-20T04:21:11;101774.91;;;7.03;58.67
59787;BME280;45672;51.612;5.536;2023-04-20T04:23:37;101755.94;;;7.09;58.61
59787;BME280;45672;51.612;5.536;2023-04-20T04:26:02;101759.94;;;7.15;58.14
59787;BME280;45672;51.612;5.536;2023-04-20T04:28:29;101753.19;;;7.23;58.35
59787;BME280;45672;51.612;5.536;2023-04-20T04:30:55;101742.84;;;7.32;58.03
59787;BME280;45672;51.612;5.536;2023-04-20T04:33:21;101739.59;;;7.28;58.52
59787;BME280;45672;51.612;5.536;2023-04-20T04:35:46;101748.03;;;7.33;58.29
59787;BME280;45672;51.612;5.536;2023-04-20T04:38:12;101742.53;;;7.36;58.03
59787;BME280;45672;51.612;5.536;2023-04-20T04:40:38;101737.97;;;7.38;58.35
59787;BME280;45672;51.612;5.536;2023-04-20T04:43:04;101736.78;;;7.42;58.32
59787;BME280;45672;51.612;5.536;2023-04-20T04:45:29;101743.78;;;7.44;58.22
59787;BME280;45672;51.612;5.536;2023-04-20T04:47:54;101728.84;;;7.42;58.41
59787;BME280;45672;51.612;5.536;2023-04-20T04:50:21;101730.97;;;7.37;58.96
59787;BME280;45672;51.612;5.536;2023-04-20T04:52:46;101735.94;;;7.42;58.16
59787;BME280;45672;51.612;5.536;2023-04-20T04:55:11;101734.06;;;7.55;57.88
59787;BME280;45672;51.612;5.536;2023-04-20T04:57:37;101722.91;;;7.39;59.02
59787;BME280;45672;51.612;5.536;2023-04-20T05:00:03;101723.66;;;7.41;58.70
59787;BME280;45672;51.612;5.536;2023-04-20T05:02:33;101732.97;;;7.47;58.54
59787;BME280;45672;51.612;5.536;2023-04-20T05:04:58;101732.91;;;7.35;58.80
59787;BME280;45672;51.612;5.536;2023-04-20T05:07:24;101722.81;;;7.40;58.83
59787;BME280;45672;51.612;5.536;2023-04-20T05:09:49;101724.78;;;7.50;58.77
59787;BME280;45672;51.612;5.536;2023-04-20T05:12:14;101736.78;;;7.42;59.66
59787;BME280;45672;51.612;5.536;2023-04-20T05:14:40;101737.03;;;7.39;59.80
59787;BME280;45672;51.612;5.536;2023-04-20T05:17:05;101724.06;;;7.48;59.06
59787;BME280;45672;51.612;5.536;2023-04-20T05:19:31;101730.53;;;7.44;59.72
59787;BME280;45672;51.612;5.536;2023-04-20T05:21:59;101723.56;;;7.42;59.98
59787;BME280;45672;51.612;5.536;2023-04-20T05:24:24;101724.25;;;7.45;60.15
59787;BME280;45672;51.612;5.536;2023-04-20T05:26:50;101722.97;;;7.50;59.85
59787;BME280;45672;51.612;5.536;2023-04-20T05:29:15;101724.78;;;7.50;60.29
59787;BME280;45672;51.612;5.536;2023-04-20T05:31:41;101724.78;;;7.50;59.98
59787;BME280;45672;51.612;5.536;2023-04-20T05:34:06;101725.06;;;7.58;59.24
59787;BME280;45672;51.612;5.536;2023-04-20T05:36:32;101714.72;;;7.55;59.97
59787;BME280;45672;51.612;5.536;2023-04-20T05:38:57;101720.84;;;7.55;60.25
59787;BME280;45672;51.612;5.536;2023-04-20T05:41:23;101714.00;;;7.64;60.17
59787;BME280;45672;51.612;5.536;2023-04-20T05:43:52;101706.75;;;7.55;60.63
59787;BME280;45672;51.612;5.536;2023-04-20T05:46:18;101704.13;;;7.55;61.07
59787;BME280;45672;51.612;5.536;2023-04-20T05:48:43;101709.47;;;7.66;60.19
59787;BME280;45672;51.612;5.536;2023-04-20T05:51:08;101706.06;;;7.64;60.56
59787;BME280;45672;51.612;5.536;2023-04-20T05:53:33;101709.28;;;7.56;61.68
59787;BME280;45672;51.612;5.536;2023-04-20T05:55:59;101724.38;;;7.67;61.44
59787;BME280;45672;51.612;5.536;2023-04-20T05:58:24;101710.91;;;7.70;61.06
59787;BME280;45672;51.612;5.536;2023-04-20T06:00:51;101711.16;;;7.79;61.36
59787;BME280;45672;51.612;5.536;2023-04-20T06:03:16;101699.41;;;7.94;60.38
59787;BME280;45672;51.612;5.536;2023-04-20T06:05:42;101711.72;;;7.95;60.77
59787;BME280;45672;51.612;5.536;2023-04-20T06:08:07;101702.44;;;8.01;60.51
59787;BME280;45672;51.612;5.536;2023-04-20T06:10:32;101699.69;;;8.14;60.42
59787;BME280;45672;51.612;5.536;2023-04-20T06:12:58;101703.56;;;8.21;60.27
59787;BME280;45672;51.612;5.536;2023-04-20T06:15:24;101695.59;;;8.21;60.92
59787;BME280;45672;51.612;5.536;2023-04-20T06:17:49;101704.78;;;8.28;60.40
59787;BME280;45672;51.612;5.536;2023-04-20T06:20:14;101709.97;;;8.29;59.94
59787;BME280;45672;51.612;5.536;2023-04-20T06:22:42;101703.19;;;8.25;60.18
59787;BME280;45672;51.612;5.536;2023-04-20T06:25:08;101709.13;;;8.29;60.51
59787;BME280;45672;51.612;5.536;2023-04-20T06:27:34;101706.72;;;8.26;60.03
59787;BME280;45672;51.612;5.536;2023-04-20T06:30:00;101695.38;;;8.24;60.13
59787;BME280;45672;51.612;5.536;2023-04-20T06:32:25;101702.84;;;8.19;61.07
59787;BME280;45672;51.612;5.536;2023-04-20T06:34:50;101698.03;;;8.35;60.23
59787;BME280;45672;51.612;5.536;2023-04-20T06:37:16;101696.94;;;8.26;60.89
59787;BME280;45672;51.612;5.536;2023-04-20T06:39:42;101687.31;;;8.37;60.79
59787;BME280;45672;51.612;5.536;2023-04-20T06:42:07;101693.25;;;8.52;60.59
59787;BME280;45672;51.612;5.536;2023-04-20T06:44:32;101686.00;;;8.76;59.46
59787;BME280;45672;51.612;5.536;2023-04-20T06:46:58;101690.13;;;8.69;59.05
59787;BME280;45672;51.612;5.536;2023-04-20T06:49:23;101690.38;;;8.55;60.01
59787;BME280;45672;51.612;5.536;2023-04-20T06:51:48;101679.25;;;8.50;59.96
59787;BME280;45672;51.612;5.536;2023-04-20T06:54:14;101686.09;;;8.41;59.95
59787;BME280;45672;51.612;5.536;2023-04-20T06:56:39;101667.00;;;8.49;59.96
59787;BME280;45672;51.612;5.536;2023-04-20T06:59:04;101678.88;;;8.43;59.80
59787;BME280;45672;51.612;5.536;2023-04-20T07:01:30;101676.03;;;8.46;59.01
59787;BME280;45672;51.612;5.536;2023-04-20T07:03:55;101670.56;;;8.36;59.67
59787;BME280;45672;51.612;5.536;2023-04-20T07:06:21;101687.53;;;8.34;59.66
59787;BME280;45672;51.612;5.536;2023-04-20T07:08:46;101680.66;;;8.31;59.95
59787;BME280;45672;51.612;5.536;2023-04-20T07:11:11;101678.25;;;8.28;60.10
59787;BME280;45672;51.612;5.536;2023-04-20T07:13:37;101685.00;;;8.21;60.71
59787;BME280;45672;51.612;5.536;2023-04-20T07:16:02;101686.22;;;8.28;60.28
59787;BME280;45672;51.612;5.536;2023-04-20T07:18:27;101691.03;;;8.23;61.42
59787;BME280;45672;51.612;5.536;2023-04-20T07:20:53;101692.13;;;8.20;61.43
59787;BME280;45672;51.612;5.536;2023-04-20T07:23:20;101685.00;;;8.21;60.70
59787;BME280;45672;51.612;5.536;2023-04-20T07:25:46;101681.84;;;8.16;60.88
59787;BME280;45672;51.612;5.536;2023-04-20T07:28:12;101700.66;;;8.13;61.44
59787;BME280;45672;51.612;5.536;2023-04-20T07:30:37;101699.19;;;8.08;62.20
59787;BME280;45672;51.612;5.536;2023-04-20T07:33:03;101700.78;;;8.11;62.65
59787;BME280;45672;51.612;5.536;2023-04-20T07:35:28;101695.09;;;8.16;62.62
59787;BME280;45672;51.612;5.536;2023-04-20T07:37:56;101683.09;;;8.68;62.41
59787;BME280;45672;51.612;5.536;2023-04-20T07:40:21;101670.81;;;9.22;59.66
59787;BME280;45672;51.612;5.536;2023-04-20T07:42:46;101677.06;;;9.32;59.43
59787;BME280;45672;51.612;5.536;2023-04-20T07:45:12;101687.97;;;9.51;58.25
59787;BME280;45672;51.612;5.536;2023-04-20T07:47:38;101675.63;;;9.82;56.65
59787;BME280;45672;51.612;5.536;2023-04-20T07:50:04;101686.19;;;10.14;55.63
59787;BME280;45672;51.612;5.536;2023-04-20T07:52:33;101687.47;;;10.41;54.92
59787;BME280;45672;51.612;5.536;2023-04-20T07:54:58;101684.25;;;10.16;55.41
59787;BME280;45672;51.612;5.536;2023-04-20T07:57:27;101682.97;;;9.90;55.85
59787;BME280;45672;51.612;5.536;2023-04-20T07:59:53;101683.41;;;9.74;56.41
59787;BME280;45672;51.612;5.536;2023-04-20T08:02:18;101676.59;;;9.60;57.29
59787;BME280;45672;51.612;5.536;2023-04-20T08:04:44;101678.50;;;9.58;57.36
59787;BME280;45672;51.612;5.536;2023-04-20T08:07:10;101679.31;;;9.48;57.52
59787;BME280;45672;51.612;5.536;2023-04-20T08:09:36;101672.00;;;9.29;58.53
59787;BME280;45672;51.612;5.536;2023-04-20T08:12:01;101686.09;;;9.41;58.07
59787;BME280;45672;51.612;5.536;2023-04-20T08:14:26;101672.25;;;9.26;58.67
59787;BME280;45672;51.612;5.536;2023-04-20T08:16:52;101676.13;;;9.22;58.97
59787;BME280;45672;51.612;5.536;2023-04-20T08:19:17;101680.88;;;9.07;59.93
59787;BME280;45672;51.612;5.536;2023-04-20T08:21:42;101680.41;;;9.02;60.14
59787;BME280;45672;51.612;5.536;2023-04-20T08:24:08;101670.66;;;9.03;60.61
59787;BME280;45672;51.612;5.536;2023-04-20T08:26:34;101662.22;;;9.30;59.77
59787;BME280;45672;51.612;5.536;2023-04-20T08:29:00;101663.38;;;9.70;59.23
59787;BME280;45672;51.612;5.536;2023-04-20T08:31:26;101657.53;;;9.97;58.09
59787;BME280;45672;51.612;5.536;2023-04-20T08:33:51;101657.94;;;10.44;57.28
59787;BME280;45672;51.612;5.536;2023-04-20T08:36:17;101662.59;;;11.12;54.19
59787;BME280;45672;51.612;5.536;2023-04-20T08:38:43;101656.16;;;11.44;52.97
59787;BME280;45672;51.612;5.536;2023-04-20T08:41:08;101657.81;;;11.45;52.87
59787;BME280;45672;51.612;5.536;2023-04-20T08:43:37;101657.78;;;10.86;53.44
59787;BME280;45672;51.612;5.536;2023-04-20T08:46:03;101653.63;;;10.53;55.05
59787;BME280;45672;51.612;5.536;2023-04-20T08:48:35;101651.75;;;10.75;54.61
59787;BME280;45672;51.612;5.536;2023-04-20T08:51:02;101642.63;;;10.77;54.49
59787;BME280;45672;51.612;5.536;2023-04-20T08:53:28;101652.88;;;10.82;53.84
59787;BME280;45672;51.612;5.536;2023-04-20T08:55:53;101648.44;;;10.51;55.06
59787;BME280;45672;51.612;5.536;2023-04-20T08:58:21;101640.31;;;10.43;55.48
59787;BME280;45672;51.612;5.536;2023-04-20T09:00:48;101655.50;;;10.10;56.59
59787;BME280;45672;51.612;5.536;2023-04-20T09:03:13;101648.94;;;10.14;57.72
59787;BME280;45672;51.612;5.536;2023-04-20T09:05:39;101650.25;;;11.50;53.83
59787;BME280;45672;51.612;5.536;2023-04-20T09:08:05;101644.00;;;12.18;51.52
59787;BME280;45672;51.612;5.536;2023-04-20T09:10:41;101649.47;;;12.45;49.59
59787;BME280;45672;51.612;5.536;2023-04-20T09:13:08;101642.19;;;12.09;50.41
59787;BME280;45672;51.612;5.536;2023-04-20T09:15:34;101641.19;;;12.10;49.86
59787;BME280;45672;51.612;5.536;2023-04-20T09:18:10;101645.06;;;11.68;50.87
59787;BME280;45672;51.612;5.536;2023-04-20T09:20:36;101647.75;;;11.39;52.07
59787;BME280;45672;51.612;5.536;2023-04-20T09:23:15;101649.44;;;11.40;52.18
59787;BME280;45672;51.612;5.536;2023-04-20T09:25:42;101644.38;;;11.17;52.70
59787;BME280;45672;51.612;5.536;2023-04-20T09:28:10;101641.69;;;10.98;53.04
59787;BME280;45672;51.612;5.536;2023-04-20T09:30:42;101641.81;;;10.86;53.96
59787;BME280;45672;51.612;5.536;2023-04-20T09:33:08;101641.47;;;10.70;54.54
59787;BME280;45672;51.612;5.536;2023-04-20T09:35:36;101634.06;;;10.64;55.17
59787;BME280;45672;51.612;5.536;2023-04-20T09:38:04;101642.28;;;10.51;55.95
59787;BME280;45672;51.612;5.536;2023-04-20T09:40:31;101634.59;;;10.58;55.42
59787;BME280;45672;51.612;5.536;2023-04-20T09:43:01;101636.69;;;10.54;55.43
59787;BME280;45672;51.612;5.536;2023-04-20T09:45:27;101629.38;;;10.46;54.90
59787;BME280;45672;51.612;5.536;2023-04-20T09:47:53;101642.94;;;10.12;56.39
59787;BME280;45672;51.612;5.536;2023-04-20T09:50:19;101632.88;;;9.95;57.18
59787;BME280;45672;51.612;5.536;2023-04-20T09:52:45;101632.25;;;9.81;57.32
59787;BME280;45672;51.612;5.536;2023-04-20T09:55:13;101625.09;;;9.72;57.90
59787;BME280;45672;51.612;5.536;2023-04-20T09:57:39;101622.28;;;9.53;59.44
59787;BME280;45672;51.612;5.536;2023-04-20T10:00:06;101612.09;;;9.58;59.01
59787;BME280;45672;51.612;5.536;2023-04-20T10:02:32;101608.34;;;9.60;59.70
59787;BME280;45672;51.612;5.536;2023-04-20T10:04:58;101623.00;;;9.76;60.48
59787;BME280;45672;51.612;5.536;2023-04-20T10:07:28;101623.13;;;9.74;59.79
59787;BME280;45672;51.612;5.536;2023-04-20T10:10:06;101615.09;;;9.64;59.89
59787;BME280;45672;51.612;5.536;2023-04-20T10:12:33;101609.50;;;9.68;60.87
59787;BME280;45672;51.612;5.536;2023-04-20T10:15:01;101622.66;;;9.69;60.56
59787;BME280;45672;51.612;5.536;2023-04-20T10:17:30;101615.06;;;9.43;61.91
59787;BME280;45672;51.612;5.536;2023-04-20T10:19:55;101607.97;;;9.44;62.14
59787;BME280;45672;51.612;5.536;2023-04-20T10:22:29;101620.28;;;9.66;61.36
59787;BME280;45672;51.612;5.536;2023-04-20T10:24:58;101611.91;;;9.71;61.13
59787;BME280;45672;51.612;5.536;2023-04-20T10:27:24;101611.97;;;9.80;60.92
59787;BME280;45672;51.612;5.536;2023-04-20T10:29:50;101605.75;;;9.91;60.43
59787;BME280;45672;51.612;5.536;2023-04-20T10:32:26;101613.94;;;10.09;59.49
59787;BME280;45672;51.612;5.536;2023-04-20T10:35:03;101597.72;;;10.12;59.15
59787;BME280;45672;51.612;5.536;2023-04-20T10:37:29;101590.22;;;10.27;59.06
59787;BME280;45672;51.612;5.536;2023-04-20T10:39:56;101596.03;;;10.42;57.60
59787;BME280;45672;51.612;5.536;2023-04-20T10:42:21;101597.63;;;10.24;58.22
59787;BME280;45672;51.612;5.536;2023-04-20T10:44:48;101600.91;;;10.06;57.72
59787;BME280;45672;51.612;5.536;2023-04-20T10:47:14;101593.94;;;9.84;58.75
59787;BME280;45672;51.612;5.536;2023-04-20T10:49:39;101598.16;;;9.87;58.65
59787;BME280;45672;51.612;5.536;2023-04-20T10:52:05;101594.22;;;9.81;59.49
59787;BME280;45672;51.612;5.536;2023-04-20T10:54:37;101591.53;;;10.12;59.02
59787;BME280;45672;51.612;5.536;2023-04-20T10:57:04;101585.75;;;10.28;59.09
59787;BME280;45672;51.612;5.536;2023-04-20T10:59:29;101578.88;;;10.56;57.58
59787;BME280;45672;51.612;5.536;2023-04-20T11:01:55;101574.25;;;10.78;56.36
59787;BME280;45672;51.612;5.536;2023-04-20T11:04:30;101574.97;;;10.90;55.66
59787;BME280;45672;51.612;5.536;2023-04-20T11:07:07;101560.84;;;11.09;55.21
59787;BME280;45672;51.612;5.536;2023-04-20T11:09:33;101566.69;;;11.12;55.31
59787;BME280;45672;51.612;5.536;2023-04-20T11:12:00;101566.81;;;11.50;53.47
59787;BME280;45672;51.612;5.536;2023-04-20T11:14:26;101561.91;;;11.45;53.72
59787;BME280;45672;51.612;5.536;2023-04-20T11:16:53;101563.75;;;11.35;53.69
59787;BME280;45672;51.612;5.536;2023-04-20T11:19:26;101558.84;;;11.11;54.48
59787;BME280;45672;51.612;5.536;2023-04-20T11:21:52;101559.09;;;10.59;55.35
59787;BME280;45672;51.612;5.536;2023-04-20T11:24:18;101558.16;;;10.29;56.58
59787;BME280;45672;51.612;5.536;2023-04-20T11:26:44;101554.22;;;10.13;58.13
59787;BME280;45672;51.612;5.536;2023-04-20T11:29:10;101539.09;;;10.14;57.34
59787;BME280;45672;51.612;5.536;2023-04-20T11:31:35;101539.03;;;10.35;57.63
59787;BME280;45672;51.612;5.536;2023-04-20T11:34:01;101540.59;;;10.47;55.49
59787;BME280;45672;51.612;5.536;2023-04-20T11:36:28;101534.28;;;10.48;56.04
59787;BME280;45672;51.612;5.536;2023-04-20T11:38:54;101541.72;;;10.45;55.21
59787;BME280;45672;51.612;5.536;2023-04-20T11:41:22;101531.31;;;10.32;55.85
59787;BME280;45672;51.612;5.536;2023-04-20T11:43:48;101538.25;;;10.13;57.31
59787;BME280;45672;51.612;5.536;2023-04-20T11:46:15;101534.88;;;10.11;57.79
59787;BME280;45672;51.612;5.536;2023-04-20T11:48:41;101522.28;;;10.04;58.59
59787;BME280;45672;51.612;5.536;2023-04-20T11:51:07;101527.03;;;10.10;58.50
59787;BME280;45672;51.612;5.536;2023-04-20T11:53:32;101534.41;;;10.06;59.25
59787;BME280;45672;51.612;5.536;2023-04-20T11:55:58;101540.97;;;9.61;67.86
59787;BME280;45672;51.612;5.536;2023-04-20T11:58:24;101547.44;;;8.73;77.66
59787;BME280;45672;51.612;5.536;2023-04-20T12:00:49;101541.84;;;8.21;78.48
59787;BME280;45672;51.612;5.536;2023-04-20T12:03:15;101535.47;;;7.78;81.17
59787;BME280;45672;51.612;5.536;2023-04-20T12:05:40;101535.34;;;7.57;81.41
59787;BME280;45672;51.612;5.536;2023-04-20T12:08:07;101531.69;;;7.35;86.83
59787;BME280;45672;51.612;5.536;2023-04-20T12:10:32;101547.84;;;7.44;84.56
59787;BME280;45672;51.612;5.536;2023-04-20T12:12:58;101541.53;;;7.33;86.20
59787;BME280;45672;51.612;5.536;2023-04-20T12:15:25;101544.34;;;7.43;87.71
59787;BME280;45672;51.612;5.536;2023-04-20T12:17:50;101541.91;;;7.29;89.43
59787;BME280;45672;51.612;5.536;2023-04-20T12:20:15;101550.91;;;7.26;93.31
59787;BME280;45672;51.612;5.536;2023-04-20T12:22:41;101547.09;;;7.41;93.65
59787;BME280;45672;51.612;5.536;2023-04-20T12:25:06;101542.31;;;7.47;95.27
59787;BME280;45672;51.612;5.536;2023-04-20T12:27:32;101524.38;;;7.50;97.14
59787;BME280;45672;51.612;5.536;2023-04-20T12:29:57;101520.91;;;7.61;98.95
59787;BME280;45672;51.612;5.536;2023-04-20T12:32:22;101523.44;;;7.74;100.00
59787;BME280;45672;51.612;5.536;2023-04-20T12:34:48;101528.50;;;7.77;94.31
59787;BME280;45672;51.612;5.536;2023-04-20T12:37:13;101520.28;;;7.57;97.46
59787;BME280;45672;51.612;5.536;2023-04-20T12:39:39;101516.09;;;7.66;93.16
59787;BME280;45672;51.612;5.536;2023-04-20T12:42:04;101512.84;;;7.85;92.87
59787;BME280;45672;51.612;5.536;2023-04-20T12:44:29;101506.91;;;8.16;93.95
59787;BME280;45672;51.612;5.536;2023-04-20T12:46:55;101503.25;;;8.51;86.21
59787;BME280;45672;51.612;5.536;2023-04-20T12:49:20;101500.69;;;8.93;83.00
59787;BME280;45672;51.612;5.536;2023-04-20T12:51:45;101497.72;;;9.28;79.96